sensor_id;sensor_type;location;lat;lon;timestamp;temperature;humidity
20398;DHT22;10358;49.590;11.030;2023-09-07T00:01:43;15.70;99.90
20398;DHT22;10358;49.590;11.030;2023-09-07T00:04:09;15.70;99.90
20398;DHT22;10358;49.590;11.030;2023-09-07T00:06:35;15.70;99.90
20398;DHT22;10358;49.590;11.030;2023-09-07T00:09:02;15.60;99.90
20398;DHT22;10358;49.590;11.030;2023-09-07T00:11:28;15.60;99.90
20398;DHT22;10358;49.590;11.030;2023-09-07T00:13:53;15.50;99.90
20398;DHT22;10358;49.590;11.030;2023-09-07T00:16:19;15.50;99.90
20398;DHT22;10358;49.590;11.030;2023-09-07T00:18:44;15.40;99.90
20398;DHT22;10358;49.590;11.030;2023-09-07T00:21:10;15.40;99.90
20398;DHT22;10358;49.590;11.030;2023-09-07T00:23:35;15.40;99.90
20398;DHT22;10358;49.590;11.030;2023-09-07T00:26:01;15.30;99.90
20398;DHT22;10358;49.590;11.030;2023-09-07T00:28:26;15.30;99.90
20398;DHT22;10358;49.590;11.030;2023-09-07T00:30:52;15.30;99.90
20398;DHT22;10358;49.590;11.030;2023-09-07T00:33:17;15.20;99.90
20398;DHT22;10358;49.590;11.030;2023-09-07T00:35:43;15.20;99.90
20398;DHT22;10358;49.590;11.030;2023-09-07T00:38:08;15.10;99.90
20398;DHT22;10358;49.590;11.030;2023-09-07T00:40:34;15.00;99.90
20398;DHT22;10358;49.590;11.030;2023-09-07T00:43:00;14.90;99.90
20398;DHT22;10358;49.590;11.030;2023-09-07T00:45:26;14.80;99.90
20398;DHT22;10358;49.590;11.030;2023-09-07T00:47:51;14.70;99.90
20398;DHT22;10358;49.590;11.030;2023-09-07T00:50:17;14.70;99.90
20398;DHT22;10358;49.590;11.030;2023-09-07T00:52:43;14.70;99.90
20398;DHT22;10358;49.590;11.030;2023-09-07T00:55:09;14.70;99.90
20398;DHT22;10358;49.590;11.030;2023-09-07T00:57:36;14.70;99.90
20398;DHT22;10358;49.590;11.030;2023-09-07T01:00:06;14.70;99.90
20398;DHT22;10358;49.590;11.030;2023-09-07T01:02:33;14.70;99.90
20398;DHT22;10358;49.590;11.030;2023-09-07T01:04:59;14.70;99.90
20398;DHT22;10358;49.590;11.030;2023-09-07T01:07:29;14.70;99.90
20398;DHT22;10358;49.590;11.030;2023-09-07T01:09:59;14.80;99.90
20398;DHT22;10358;49.590;11.030;2023-09-07T01:12:26;14.70;99.90
20398;DHT22;10358;49.590;11.030;2023-09-07T01:14:51;14.70;99.90
20398;DHT22;10358;49.590;11.030;2023-09-07T01:17:18;14.50;99.90
20398;DHT22;10358;49.590;11.030;2023-09-07T01:19:44;14.50;99.90
20398;DHT22;10358;49.590;11.030;2023-09-07T01:22:11;14.50;99.90
20398;DHT22;10358;49.590;11.030;2023-09-07T01:24:38;14.50;99.90
20398;DHT22;10358;49.590;11.030;2023-09-07T01:27:05;14.50;99.90
20398;DHT22;10358;49.590;11.030;2023-09-07T01:29:30;14.50;99.90
20398;DHT22;10358;49.590;11.030;2023-09-07T01:31:56;14.40;99.90
20398;DHT22;10358;49.590;11.030;2023-09-07T01:34:23;14.40;99.90
20398;DHT22;10358;49.590;11.030;2023-09-07T01:36:49;14.40;99.90
20398;DHT22;10358;49.590;11.030;2023-09-07T01:39:14;14.40;99.90
20398;DHT22;10358;49.590;11.030;2023-09-07T01:41:42;14.30;99.90
20398;DHT22;10358;49.590;11.030;2023-09-07T01:44:07;14.30;99.90
20398;DHT22;10358;49.590;11.030;2023-09-07T01:46:33;14.30;99.90
20398;DHT22;10358;49.590;11.030;2023-09-07T01:48:58;14.30;99.90
20398;DHT22;10358;49.590;11.030;2023-09-07T01:51:24;14.30;99.90
20398;DHT22;10358;49.590;11.030;2023-09-07T01:53:53;14.40;99.90
20398;DHT22;10358;49.590;11.030;2023-09-07T01:56:19;14.30;99.90
20398;DHT22;10358;49.590;11.030;2023-09-07T01:58:44;14.30;99.90
20398;DHT22;10358;49.590;11.030;2023-09-07T02:01:31;14.30;99.90
20398;DHT22;10358;49.590;11.030;2023-09-07T02:03:57;14.30;99.90
20398;DHT22;10358;49.590;11.030;2023-09-07T02:06:22;14.30;99.90
20398;DHT22;10358;49.590;11.030;2023-09-07T02:08:48;14.20;99.90
20398;DHT22;10358;49.590;11.030;2023-09-07T02:11:14;14.20;99.90
20398;DHT22;10358;49.590;11.030;2023-09-07T02:13:45;14.20;99.90
20398;DHT22;10358;49.590;11.030;2023-09-07T02:16:11;14.10;99.90
20398;DHT22;10358;49.590;11.030;2023-09-07T02:18:37;14.10;99.90
20398;DHT22;10358;49.590;11.030;2023-09-07T02:21:09;14.10;99.90
20398;DHT22;10358;49.590;11.030;2023-09-07T02:23:35;14.00;99.90
20398;DHT22;10358;49.590;11.030;2023-09-07T02:26:02;14.00;99.90
20398;DHT22;10358;49.590;11.030;2023-09-07T02:28:27;14.10;99.90
20398;DHT22;10358;49.590;11.030;2023-09-07T02:30:53;14.00;99.90
20398;DHT22;10358;49.590;11.030;2023-09-07T02:33:19;13.90;99.90
20398;DHT22;10358;49.590;11.030;2023-09-07T02:35:45;13.90;99.90
20398;DHT22;10358;49.590;11.030;2023-09-07T02:38:10;13.90;99.90
20398;DHT22;10358;49.590;11.030;2023-09-07T02:40:42;13.90;99.90
20398;DHT22;10358;49.590;11.030;2023-09-07T02:43:09;13.80;99.90
20398;DHT22;10358;49.590;11.030;2023-09-07T02:45:35;13.80;99.90
20398;DHT22;10358;49.590;11.030;2023-09-07T02:48:00;13.80;99.90
20398;DHT22;10358;49.590;11.030;2023-09-07T02:50:28;13.80;99.90
20398;DHT22;10358;49.590;11.030;2023-09-07T02:52:53;13.80;99.90
20398;DHT22;10358;49.590;11.030;2023-09-07T02:55:19;13.70;99.90
20398;DHT22;10358;49.590;11.030;2023-09-07T02:57:44;13.70;99.90
20398;DHT22;10358;49.590;11.030;2023-09-07T03:00:10;13.70;99.90
20398;DHT22;10358;49.590;11.030;2023-09-07T03:02:37;13.70;99.90
20398;DHT22;10358;49.590;11.030;2023-09-07T03:05:03;13.60;99.90
20398;DHT22;10358;49.590;11.030;2023-09-07T03:07:33;13.60;99.90
20398;DHT22;10358;49.590;11.030;2023-09-07T03:09:58;13.60;99.90
20398;DHT22;10358;49.590;11.030;2023-09-07T03:12:24;13.50;99.90
20398;DHT22;10358;49.590;11.030;2023-09-07T03:14:50;13.50;99.90
20398;DHT22;10358;49.590;11.030;2023-09-07T03:17:18;13.40;99.90
20398;DHT22;10358;49.590;11.030;2023-09-07T03:19:46;13.40;99.90
20398;DHT22;10358;49.590;11.030;2023-09-07T03:22:12;13.40;99.90
20398;DHT22;10358;49.590;11.030;2023-09-07T03:24:37;13.40;99.90
20398;DHT22;10358;49.590;11.030;2023-09-07T03:27:03;13.40;99.90
20398;DHT22;10358;49.590;11.030;2023-09-07T03:29:29;13.40;99.90
20398;DHT22;10358;49.590;11.030;2023-09-07T03:31:55;13.40;99.90
20398;DHT22;10358;49.590;11.030;2023-09-07T03:34:21;13.40;99.90
20398;DHT22;10358;49.590;11.030;2023-09-07T03:36:46;13.40;99.90
20398;DHT22;10358;49.590;11.030;2023-09-07T03:39:12;13.40;99.90
20398;DHT22;10358;49.590;11.030;2023-09-07T03:41:37;13.40;99.90
20398;DHT22;10358;49.590;11.030;2023-09-07T03:44:03;13.30;99.90
20398;DHT22;10358;49.590;11.030;2023-09-07T03:46:29;13.40;99.90
20398;DHT22;10358;49.590;11.030;2023-09-07T03:48:54;13.30;99.90
20398;DHT22;10358;49.590;11.030;2023-09-07T03:51:20;13.20;99.90
20398;DHT22;10358;49.590;11.030;2023-09-07T03:53:45;13.20;99.90
20398;DHT22;10358;49.590;11.030;2023-09-07T03:56:11;13.10;99.90
20398;DHT22;10358;49.590;11.030;2023-09-07T03:58:36;13.10;99.90
20398;DHT22;10358;49.590;11.030;2023-09-07T04:01:02;13.00;99.90
20398;DHT22;10358;49.590;11.030;2023-09-07T04:03:27;13.00;99.90
20398;DHT22;10358;49.590;11.030;2023-09-07T04:05:53;13.00;99.90
20398;DHT22;10358;49.590;11.030;2023-09-07T04:08:19;13.00;99.90
20398;DHT22;10358;49.590;11.030;2023-09-07T04:10:44;13.00;99.90
20398;DHT22;10358;49.590;11.030;2023-09-07T04:13:10;13.00;99.90
20398;DHT22;10358;49.590;11.030;2023-09-07T04:15:45;13.00;99.90
20398;DHT22;10358;49.590;11.030;2023-09-07T04:18:12;13.00;99.90
20398;DHT22;10358;49.590;11.030;2023-09-07T04:20:42;12.90;99.90
20398;DHT22;10358;49.590;11.030;2023-09-07T04:23:08;13.00;99.90
20398;DHT22;10358;49.590;11.030;2023-09-07T04:25:34;13.00;99.90
20398;DHT22;10358;49.590;11.030;2023-09-07T04:27:59;12.90;99.90
20398;DHT22;10358;49.590;11.030;2023-09-07T04:30:25;12.90;99.90
20398;DHT22;10358;49.590;11.030;2023-09-07T04:32:51;12.90;99.90
20398;DHT22;10358;49.590;11.030;2023-09-07T04:35:16;12.90;99.90
20398;DHT22;10358;49.590;11.030;2023-09-07T04:37:42;12.90;99.90
20398;DHT22;10358;49.590;11.030;2023-09-07T04:40:09;12.80;99.90
20398;DHT22;10358;49.590;11.030;2023-09-07T04:45:02;12.80;99.90
20398;DHT22;10358;49.590;11.030;2023-09-07T04:47:28;12.70;99.90
20398;DHT22;10358;49.590;11.030;2023-09-07T04:49:54;12.70;99.90
20398;DHT22;10358;49.590;11.030;2023-09-07T04:52:19;12.70;99.90
20398;DHT22;10358;49.590;11.030;2023-09-07T04:54:45;12.80;99.90
20398;DHT22;10358;49.590;11.030;2023-09-07T04:57:12;12.80;99.90
20398;DHT22;10358;49.590;11.030;2023-09-07T04:59:37;12.80;99.90
20398;DHT22;10358;49.590;11.030;2023-09-07T05:02:03;12.80;99.90
20398;DHT22;10358;49.590;11.030;2023-09-07T05:04:29;12.80;99.90
20398;DHT22;10358;49.590;11.030;2023-09-07T05:06:56;12.90;99.90
20398;DHT22;10358;49.590;11.030;2023-09-07T05:09:22;12.90;99.90
20398;DHT22;10358;49.590;11.030;2023-09-07T05:11:49;12.90;99.90
20398;DHT22;10358;49.590;11.030;2023-09-07T05:14:14;12.90;99.90
20398;DHT22;10358;49.590;11.030;2023-09-07T05:16:42;13.00;99.90
20398;DHT22;10358;49.590;11.030;2023-09-07T05:19:08;13.00;99.90
20398;DHT22;10358;49.590;11.030;2023-09-07T05:21:34;13.10;99.90
20398;DHT22;10358;49.590;11.030;2023-09-07T05:23:59;13.20;99.90
20398;DHT22;10358;49.590;11.030;2023-09-07T05:26:25;13.20;99.90
20398;DHT22;10358;49.590;11.030;2023-09-07T05:28:50;13.20;99.90
20398;DHT22;10358;49.590;11.030;2023-09-07T05:31:16;13.30;99.90
20398;DHT22;10358;49.590;11.030;2023-09-07T05:33:41;13.30;99.90
20398;DHT22;10358;49.590;11.030;2023-09-07T05:36:07;13.40;99.90
20398;DHT22;10358;49.590;11.030;2023-09-07T05:38:33;13.50;99.90
20398;DHT22;10358;49.590;11.030;2023-09-07T05:40:58;13.50;99.90
20398;DHT22;10358;49.590;11.030;2023-09-07T05:43:24;13.60;99.90
20398;DHT22;10358;49.590;11.030;2023-09-07T05:45:49;13.60;99.90
20398;DHT22;10358;49.590;11.030;2023-09-07T05:48:15;13.80;99.90
20398;DHT22;10358;49.590;11.030;2023-09-07T05:50:44;13.90;99.90
20398;DHT22;10358;49.590;11.030;2023-09-07T05:53:10;14.00;99.90
20398;DHT22;10358;49.590;11.030;2023-09-07T05:55:36;14.00;99.90
20398;DHT22;10358;49.590;11.030;2023-09-07T05:58:05;14.10;99.90
20398;DHT22;10358;49.590;11.030;2023-09-07T06:00:31;14.30;99.90
20398;DHT22;10358;49.590;11.030;2023-09-07T06:02:56;14.40;99.90
20398;DHT22;10358;49.590;11.030;2023-09-07T06:05:22;14.60;99.90
20398;DHT22;10358;49.590;11.030;2023-09-07T06:07:48;14.70;99.90
20398;DHT22;10358;49.590;11.030;2023-09-07T06:10:14;14.80;99.90
20398;DHT22;10358;49.590;11.030;2023-09-07T06:12:39;14.90;99.90
20398;DHT22;10358;49.590;11.030;2023-09-07T06:15:05;15.10;99.90
20398;DHT22;10358;49.590;11.030;2023-09-07T06:17:31;15.20;99.90
20398;DHT22;10358;49.590;11.030;2023-09-07T06:19:57;15.30;99.90
20398;DHT22;10358;49.590;11.030;2023-09-07T06:22:22;15.40;99.90
20398;DHT22;10358;49.590;11.030;2023-09-07T06:24:49;15.50;99.90
20398;DHT22;10358;49.590;11.030;2023-09-07T06:27:14;15.60;99.90
20398;DHT22;10358;49.590;11.030;2023-09-07T06:29:40;15.70;99.90
20398;DHT22;10358;49.590;11.030;2023-09-07T06:32:05;15.70;99.90
20398;DHT22;10358;49.590;11.030;2023-09-07T06:34:31;15.80;99.90
20398;DHT22;10358;49.590;11.030;2023-09-07T06:36:56;15.80;99.90
20398;DHT22;10358;49.590;11.030;2023-09-07T06:39:22;15.90;99.90
20398;DHT22;10358;49.590;11.030;2023-09-07T06:41:48;16.00;99.90
20398;DHT22;10358;49.590;11.030;2023-09-07T06:44:13;16.10;99.90
20398;DHT22;10358;49.590;11.030;2023-09-07T06:46:40;16.20;99.90
20398;DHT22;10358;49.590;11.030;2023-09-07T06:49:05;16.30;99.90
20398;DHT22;10358;49.590;11.030;2023-09-07T06:51:31;16.40;99.90
20398;DHT22;10358;49.590;11.030;2023-09-07T06:53:57;16.50;99.90
20398;DHT22;10358;49.590;11.030;2023-09-07T06:56:23;16.60;99.90
20398;DHT22;10358;49.590;11.030;2023-09-07T06:58:48;16.70;99.90
20398;DHT22;10358;49.590;11.030;2023-09-07T07:01:14;16.90;99.90
20398;DHT22;10358;49.590;11.030;2023-09-07T07:03:40;17.10;99.90
20398;DHT22;10358;49.590;11.030;2023-09-07T07:06:06;17.30;99.90
20398;DHT22;10358;49.590;11.030;2023-09-07T07:08:32;17.40;99.90
20398;DHT22;10358;49.590;11.030;2023-09-07T07:10:57;17.60;99.90
20398;DHT22;10358;49.590;11.030;2023-09-07T07:13:23;17.80;99.90
20398;DHT22;10358;49.590;11.030;2023-09-07T07:15:48;17.80;99.90
20398;DHT22;10358;49.590;11.030;2023-09-07T07:18:14;18.10;99.90
20398;DHT22;10358;49.590;11.030;2023-09-07T07:20:41;18.10;99.90
20398;DHT22;10358;49.590;11.030;2023-09-07T07:23:07;18.30;99.90
20398;DHT22;10358;49.590;11.030;2023-09-07T07:25:33;18.40;99.90
20398;DHT22;10358;49.590;11.030;2023-09-07T07:28:03;18.60;99.90
20398;DHT22;10358;49.590;11.030;2023-09-07T07:30:36;18.70;99.90
20398;DHT22;10358;49.590;11.030;2023-09-07T07:33:03;18.80;99.90
20398;DHT22;10358;49.590;11.030;2023-09-07T07:35:34;18.90;99.90
20398;DHT22;10358;49.590;11.030;2023-09-07T07:38:00;19.10;99.90
20398;DHT22;10358;49.590;11.030;2023-09-07T07:40:26;19.20;99.90
20398;DHT22;10358;49.590;11.030;2023-09-07T07:42:52;19.30;99.90
20398;DHT22;10358;49.590;11.030;2023-09-07T07:45:18;19.40;99.90
20398;DHT22;10358;49.590;11.030;2023-09-07T07:47:45;19.60;99.90
20398;DHT22;10358;49.590;11.030;2023-09-07T07:50:11;19.70;99.90
20398;DHT22;10358;49.590;11.030;2023-09-07T07:52:36;19.80;99.90
20398;DHT22;10358;49.590;11.030;2023-09-07T07:55:02;20.00;99.90
20398;DHT22;10358;49.590;11.030;2023-09-07T07:57:28;20.10;99.90
20398;DHT22;10358;49.590;11.030;2023-09-07T07:59:55;20.20;99.90
20398;DHT22;10358;49.590;11.030;2023-09-07T08:02:20;20.30;99.90
20398;DHT22;10358;49.590;11.030;2023-09-07T08:04:46;20.40;99.90
20398;DHT22;10358;49.590;11.030;2023-09-07T08:07:11;20.50;99.90
20398;DHT22;10358;49.590;11.030;2023-09-07T08:09:37;20.60;99.90
20398;DHT22;10358;49.590;11.030;2023-09-07T08:12:05;20.70;99.90
20398;DHT22;10358;49.590;11.030;2023-09-07T08:14:31;20.80;99.90
20398;DHT22;10358;49.590;11.030;2023-09-07T08:16:57;20.90;99.90
20398;DHT22;10358;49.590;11.030;2023-09-07T08:19:22;21.00;99.90
20398;DHT22;10358;49.590;11.030;2023-09-07T08:21:48;21.10;99.90
20398;DHT22;10358;49.590;11.030;2023-09-07T08:24:13;21.10;99.90
20398;DHT22;10358;49.590;11.030;2023-09-07T08:26:39;21.30;99.90
20398;DHT22;10358;49.590;11.030;2023-09-07T08:29:05;21.30;99.90
20398;DHT22;10358;49.590;11.030;2023-09-07T08:31:32;21.40;99.90
20398;DHT22;10358;49.590;11.030;2023-09-07T08:34:03;21.50;99.90
20398;DHT22;10358;49.590;11.030;2023-09-07T08:36:29;21.60;99.90
20398;DHT22;10358;49.590;11.030;2023-09-07T08:38:58;21.80;99.90
20398;DHT22;10358;49.590;11.030;2023-09-07T08:41:26;21.80;99.90
20398;DHT22;10358;49.590;11.030;2023-09-07T08:43:53;21.90;99.90
20398;DHT22;10358;49.590;11.030;2023-09-07T08:46:20;22.10;99.90
20398;DHT22;10358;49.590;11.030;2023-09-07T08:48:47;22.10;99.90
20398;DHT22;10358;49.590;11.030;2023-09-07T08:51:18;22.20;99.90
20398;DHT22;10358;49.590;11.030;2023-09-07T08:53:44;22.30;99.90
20398;DHT22;10358;49.590;11.030;2023-09-07T08:56:12;22.30;99.90
20398;DHT22;10358;49.590;11.030;2023-09-07T08:58:38;22.40;99.90
20398;DHT22;10358;49.590;11.030;2023-09-07T09:01:05;22.40;99.90
20398;DHT22;10358;49.590;11.030;2023-09-07T09:03:31;22.50;99.90
20398;DHT22;10358;49.590;11.030;2023-09-07T09:05:57;22.50;99.90
20398;DHT22;10358;49.590;11.030;2023-09-07T09:08:22;22.50;99.90
20398;DHT22;10358;49.590;11.030;2023-09-07T09:11:01;22.60;99.90
20398;DHT22;10358;49.590;11.030;2023-09-07T09:13:32;22.70;99.90
20398;DHT22;10358;49.590;11.030;2023-09-07T09:16:01;22.70;99.90
20398;DHT22;10358;49.590;11.030;2023-09-07T09:18:27;22.70;99.90
20398;DHT22;10358;49.590;11.030;2023-09-07T09:20:54;22.80;99.90
20398;DHT22;10358;49.590;11.030;2023-09-07T09:23:20;22.90;99.90
20398;DHT22;10358;49.590;11.030;2023-09-07T09:25:48;23.00;99.90
20398;DHT22;10358;49.590;11.030;2023-09-07T09:28:14;23.10;99.90
20398;DHT22;10358;49.590;11.030;2023-09-07T09:30:41;23.10;99.90
20398;DHT22;10358;49.590;11.030;2023-09-07T09:33:09;23.20;99.90
20398;DHT22;10358;49.590;11.030;2023-09-07T09:35:35;23.40;99.90
20398;DHT22;10358;49.590;11.030;2023-09-07T09:38:01;23.40;99.90
20398;DHT22;10358;49.590;11.030;2023-09-07T09:40:31;23.40;99.90
20398;DHT22;10358;49.590;11.030;2023-09-07T09:42:59;23.40;99.90
20398;DHT22;10358;49.590;11.030;2023-09-07T09:45:26;23.50;99.90
20398;DHT22;10358;49.590;11.030;2023-09-07T09:47:54;23.60;99.90
20398;DHT22;10358;49.590;11.030;2023-09-07T09:50:21;23.60;99.90
20398;DHT22;10358;49.590;11.030;2023-09-07T09:52:48;23.70;99.90
20398;DHT22;10358;49.590;11.030;2023-09-07T09:55:14;23.70;99.90
20398;DHT22;10358;49.590;11.030;2023-09-07T09:57:40;23.80;99.90
20398;DHT22;10358;49.590;11.030;2023-09-07T10:00:06;23.90;99.90
20398;DHT22;10358;49.590;11.030;2023-09-07T10:02:50;23.90;99.90
20398;DHT22;10358;49.590;11.030;2023-09-07T10:05:17;24.00;99.90
20398;DHT22;10358;49.590;11.030;2023-09-07T10:07:47;24.10;99.90
20398;DHT22;10358;49.590;11.030;2023-09-07T10:10:13;24.10;99.90
20398;DHT22;10358;49.590;11.030;2023-09-07T10:13:00;24.20;99.90
20398;DHT22;10358;49.590;11.030;2023-09-07T10:15:27;24.30;99.90
20398;DHT22;10358;49.590;11.030;2023-09-07T10:18:14;24.30;99.90
20398;DHT22;10358;49.590;11.030;2023-09-07T10:23:21;24.40;99.90
20398;DHT22;10358;49.590;11.030;2023-09-07T10:25:51;24.50;99.90
20398;DHT22;10358;49.590;11.030;2023-09-07T10:28:21;24.60;99.90
20398;DHT22;10358;49.590;11.030;2023-09-07T10:31:14;24.50;99.90
20398;DHT22;10358;49.590;11.030;2023-09-07T10:33:40;24.70;99.90
20398;DHT22;10358;49.590;11.030;2023-09-07T10:36:06;24.70;99.90
20398;DHT22;10358;49.590;11.030;2023-09-07T10:38:33;24.70;99.90
20398;DHT22;10358;49.590;11.030;2023-09-07T10:41:00;24.80;99.90
20398;DHT22;10358;49.590;11.030;2023-09-07T10:43:27;24.90;99.90
20398;DHT22;10358;49.590;11.030;2023-09-07T10:45:54;24.90;99.90
20398;DHT22;10358;49.590;11.030;2023-09-07T10:48:20;24.90;99.90
20398;DHT22;10358;49.590;11.030;2023-09-07T10:50:46;25.00;99.90
20398;DHT22;10358;49.590;11.030;2023-09-07T10:53:24;25.00;99.90
20398;DHT22;10358;49.590;11.030;2023-09-07T10:55:50;25.10;99.90
20398;DHT22;10358;49.590;11.030;2023-09-07T10:58:29;25.10;99.90
20398;DHT22;10358;49.590;11.030;2023-09-07T11:00:55;25.10;99.90
20398;DHT22;10358;49.590;11.030;2023-09-07T11:03:22;25.20;99.90
20398;DHT22;10358;49.590;11.030;2023-09-07T11:05:48;25.20;99.90
20398;DHT22;10358;49.590;11.030;2023-09-07T11:08:14;25.20;99.90
20398;DHT22;10358;49.590;11.030;2023-09-07T11:10:40;25.30;99.90
20398;DHT22;10358;49.590;11.030;2023-09-07T11:13:05;25.40;99.90
20398;DHT22;10358;49.590;11.030;2023-09-07T11:15:33;25.50;99.90
20398;DHT22;10358;49.590;11.030;2023-09-07T11:18:08;25.50;99.90
20398;DHT22;10358;49.590;11.030;2023-09-07T11:20:35;25.60;99.90
20398;DHT22;10358;49.590;11.030;2023-09-07T11:23:01;25.70;99.90
20398;DHT22;10358;49.590;11.030;2023-09-07T11:25:26;25.70;99.90
20398;DHT22;10358;49.590;11.030;2023-09-07T11:27:52;25.70;99.90
20398;DHT22;10358;49.590;11.030;2023-09-07T11:30:21;25.80;99.90
20398;DHT22;10358;49.590;11.030;2023-09-07T11:32:47;25.80;99.90
20398;DHT22;10358;49.590;11.030;2023-09-07T11:35:12;25.80;99.90
20398;DHT22;10358;49.590;11.030;2023-09-07T11:37:38;25.90;99.90
20398;DHT22;10358;49.590;11.030;2023-09-07T11:40:06;25.90;99.90
20398;DHT22;10358;49.590;11.030;2023-09-07T11:42:40;26.00;99.90
20398;DHT22;10358;49.590;11.030;2023-09-07T11:45:07;26.10;99.90
20398;DHT22;10358;49.590;11.030;2023-09-07T11:47:32;26.10;99.90
20398;DHT22;10358;49.590;11.030;2023-09-07T11:50:00;26.20;99.10
20398;DHT22;10358;49.590;11.030;2023-09-07T11:52:25;26.30;98.90
20398;DHT22;10358;49.590;11.030;2023-09-07T11:54:51;26.30;98.70
20398;DHT22;10358;49.590;11.030;2023-09-07T11:57:16;26.40;97.10
20398;DHT22;10358;49.590;11.030;2023-09-07T11:59:42;26.60;95.60
20398;DHT22;10358;49.590;11.030;2023-09-07T12:02:08;26.70;94.80
20398;DHT22;10358;49.590;11.030;2023-09-07T12:04:36;26.80;95.00
20398;DHT22;10358;49.590;11.030;2023-09-07T12:07:03;26.80;94.40
20398;DHT22;10358;49.590;11.030;2023-09-07T12:09:29;26.90;93.50
20398;DHT22;10358;49.590;11.030;2023-09-07T12:11:54;27.00;93.20
20398;DHT22;10358;49.590;11.030;2023-09-07T12:14:20;27.10;93.10
20398;DHT22;10358;49.590;11.030;2023-09-07T12:16:45;27.20;92.80
20398;DHT22;10358;49.590;11.030;2023-09-07T12:19:11;27.30;91.40
20398;DHT22;10358;49.590;11.030;2023-09-07T12:21:36;27.40;91.30
20398;DHT22;10358;49.590;11.030;2023-09-07T12:24:03;27.50;90.20
20398;DHT22;10358;49.590;11.030;2023-09-07T12:26:29;27.60;89.70
20398;DHT22;10358;49.590;11.030;2023-09-07T12:28:54;27.70;89.30
20398;DHT22;10358;49.590;11.030;2023-09-07T12:31:20;27.80;88.60
20398;DHT22;10358;49.590;11.030;2023-09-07T12:33:45;27.90;87.70
20398;DHT22;10358;49.590;11.030;2023-09-07T12:36:11;28.00;87.10
20398;DHT22;10358;49.590;11.030;2023-09-07T12:38:37;28.10;86.70
20398;DHT22;10358;49.590;11.030;2023-09-07T12:41:03;28.20;86.20
20398;DHT22;10358;49.590;11.030;2023-09-07T12:43:28;28.40;85.40
20398;DHT22;10358;49.590;11.030;2023-09-07T12:45:54;28.60;84.40
20398;DHT22;10358;49.590;11.030;2023-09-07T12:48:20;28.70;82.30
20398;DHT22;10358;49.590;11.030;2023-09-07T12:50:46;28.90;81.60
20398;DHT22;10358;49.590;11.030;2023-09-07T12:53:12;28.90;81.30
20398;DHT22;10358;49.590;11.030;2023-09-07T12:55:38;29.00;78.70
20398;DHT22;10358;49.590;11.030;2023-09-07T12:58:03;29.10;78.00
20398;DHT22;10358;49.590;11.030;2023-09-07T13:00:29;29.20;77.40
20398;DHT22;10358;49.590;11.030;2023-09-07T13:02:55;29.30;76.50
20398;DHT22;10358;49.590;11.030;2023-09-07T13:05:21;29.50;76.30
20398;DHT22;10358;49.590;11.030;2023-09-07T13:07:47;29.60;75.10
20398;DHT22;10358;49.590;11.030;2023-09-07T13:10:13;29.80;74.30
20398;DHT22;10358;49.590;11.030;2023-09-07T13:12:40;30.00;73.50
20398;DHT22;10358;49.590;11.030;2023-09-07T13:15:06;30.10;72.10
20398;DHT22;10358;49.590;11.030;2023-09-07T13:17:32;30.20;71.00
20398;DHT22;10358;49.590;11.030;2023-09-07T13:19:58;30.40;70.10
20398;DHT22;10358;49.590;11.030;2023-09-07T13:22:24;30.40;68.60
20398;DHT22;10358;49.590;11.030;2023-09-07T13:24:49;30.60;68.30
20398;DHT22;10358;49.590;11.030;2023-09-07T13:27:15;30.60;68.40
20398;DHT22;10358;49.590;11.030;2023-09-07T13:29:41;30.70;68.40
20398;DHT22;10358;49.590;11.030;2023-09-07T13:32:07;30.90;68.40
20398;DHT22;10358;49.590;11.030;2023-09-07T13:34:32;31.00;67.10
20398;DHT22;10358;49.590;11.030;2023-09-07T13:36:58;31.00;65.10
20398;DHT22;10358;49.590;11.030;2023-09-07T13:39:24;31.20;64.20
20398;DHT22;10358;49.590;11.030;2023-09-07T13:41:49;31.30;63.40
20398;DHT22;10358;49.590;11.030;2023-09-07T13:44:15;31.50;63.20
20398;DHT22;10358;49.590;11.030;2023-09-07T13:46:42;31.70;63.20
20398;DHT22;10358;49.590;11.030;2023-09-07T13:49:09;31.90;62.70
20398;DHT22;10358;49.590;11.030;2023-09-07T13:51:35;32.00;61.70
20398;DHT22;10358;49.590;11.030;2023-09-07T13:54:04;32.20;61.30
20398;DHT22;10358;49.590;11.030;2023-09-07T13:56:30;32.40;60.50
20398;DHT22;10358;49.590;11.030;2023-09-07T13:58:56;32.50;59.70
20398;DHT22;10358;49.590;11.030;2023-09-07T14:01:22;32.70;59.40
20398;DHT22;10358;49.590;11.030;2023-09-07T14:03:49;32.90;58.80
20398;DHT22;10358;49.590;11.030;2023-09-07T14:06:14;33.10;57.90
20398;DHT22;10358;49.590;11.030;2023-09-07T14:08:40;33.10;57.70
20398;DHT22;10358;49.590;11.030;2023-09-07T14:11:05;33.20;57.70
20398;DHT22;10358;49.590;11.030;2023-09-07T14:13:32;33.30;56.80
20398;DHT22;10358;49.590;11.030;2023-09-07T14:16:00;33.40;56.30
20398;DHT22;10358;49.590;11.030;2023-09-07T14:18:26;33.40;55.60
20398;DHT22;10358;49.590;11.030;2023-09-07T14:20:51;33.50;55.40
20398;DHT22;10358;49.590;11.030;2023-09-07T14:23:17;33.90;54.90
20398;DHT22;10358;49.590;11.030;2023-09-07T14:25:46;34.00;54.00
20398;DHT22;10358;49.590;11.030;2023-09-07T14:28:12;34.20;52.70
20398;DHT22;10358;49.590;11.030;2023-09-07T14:30:38;34.20;52.40
20398;DHT22;10358;49.590;11.030;2023-09-07T14:33:04;34.40;52.50
20398;DHT22;10358;49.590;11.030;2023-09-07T14:35:30;34.70;50.60
20398;DHT22;10358;49.590;11.030;2023-09-07T14:37:56;34.70;49.90
20398;DHT22;10358;49.590;11.030;2023-09-07T14:40:21;34.80;49.50
20398;DHT22;10358;49.590;11.030;2023-09-07T14:42:49;35.00;48.30
20398;DHT22;10358;49.590;11.030;2023-09-07T14:45:16;35.10;48.10
20398;DHT22;10358;49.590;11.030;2023-09-07T14:47:41;35.20;48.20
20398;DHT22;10358;49.590;11.030;2023-09-07T14:50:07;35.50;48.10
20398;DHT22;10358;49.590;11.030;2023-09-07T14:52:33;35.70;47.40
20398;DHT22;10358;49.590;11.030;2023-09-07T14:55:03;35.90;46.90
20398;DHT22;10358;49.590;11.030;2023-09-07T14:57:28;36.10;46.20
20398;DHT22;10358;49.590;11.030;2023-09-07T14:59:54;36.30;46.10
20398;DHT22;10358;49.590;11.030;2023-09-07T15:02:19;36.70;44.00
20398;DHT22;10358;49.590;11.030;2023-09-07T15:04:45;36.90;44.70
20398;DHT22;10358;49.590;11.030;2023-09-07T15:07:10;37.30;44.20
20398;DHT22;10358;49.590;11.030;2023-09-07T15:09:36;37.60;43.20
20398;DHT22;10358;49.590;11.030;2023-09-07T15:12:01;37.70;43.00
20398;DHT22;10358;49.590;11.030;2023-09-07T15:14:27;37.70;42.60
20398;DHT22;10358;49.590;11.030;2023-09-07T15:16:53;37.90;42.10